Decoded Metar for LEPP (PAMPLONA in SPAIN) (IATA:PNA) | Meteo·Mobile Aviation Weather
aviador You're here:

LEPP Decoded Metar

PAMPLONA in SPAIN
Report Time2018-11-14 11:00:00
UTC Time2018-11-14 11:17:16
Flight Rules mvfr MVFR
Wind120° at 03 kt
W.Decomp.*RWY 15: 2.6 kt HW 1.5 kt LCW
W.Rank120° ranks 18
Current wind is below 120° avg. (6.6)
Visibility8000 m
Phenomena:N/A
Clouds:Broken 025 Hf
Broken 038 Hf
Expected CloudBase > 1,600 ft AGL from Temp-Dew spread
Ceiling2,500 ft
Temp15°C (ISA +3)
Dew Point11°C (77% RH)
AAT14.2°C
QNH1024 hPa
Density Alt1,670 ft
Elevation1,506 ft
Report Wrong Elevation
Raw Report
LEPP 141100Z 12003KT 070V160 8000 BKN025 BKN038 15/11 Q1024=

Extra information for LEPP:More info

Metar Taf Metar & Taf Last 4 Metars F.Rules Stats Wind Profile Meteogram Temp Stats Airport Information Weather charts Add Link Nearby VenuesMetar ALERT Operation Metar Decoded Social comments